createdAt,value
2022-09-28T00:01:24.167Z,1.25
2022-09-28T00:06:25.203Z,1.08
2022-09-28T00:11:26.834Z,1.50
2022-09-28T00:16:25.994Z,1.35
2022-09-28T00:21:25.590Z,1.45
2022-09-28T00:26:19.892Z,1.67
2022-09-28T00:31:13.690Z,1.30
2022-09-28T00:36:07.770Z,1.55
2022-09-28T00:41:02.389Z,1.50
2022-09-28T00:46:02.762Z,1.20
2022-09-28T00:50:57.937Z,1.40
2022-09-28T00:55:56.628Z,1.23
2022-09-28T01:00:51.096Z,1.13
2022-09-28T01:05:46.526Z,1.52
2022-09-28T01:10:40.538Z,1.30
2022-09-28T01:15:43.865Z,1.73
2022-09-28T01:21:23.246Z,1.30
2022-09-28T01:26:49.615Z,1.60
2022-09-28T01:31:46.938Z,1.40
2022-09-28T01:36:46.132Z,1.95
2022-09-28T01:41:41.072Z,2.13
2022-09-28T01:46:47.349Z,1.73
2022-09-28T01:51:52.278Z,1.63
2022-09-28T01:57:20.184Z,1.98
2022-09-28T02:02:19.695Z,1.77
2022-09-28T02:07:17.211Z,1.65
2022-09-28T02:12:20.919Z,1.63
2022-09-28T02:17:16.689Z,1.83
2022-09-28T02:22:34.067Z,1.58
2022-09-28T02:27:34.949Z,1.40
2022-09-28T02:32:30.197Z,1.35
2022-09-28T02:37:24.644Z,2.08
2022-09-28T02:42:28.152Z,1.77
2022-09-28T02:47:43.957Z,1.73
2022-09-28T02:53:19.604Z,1.67
2022-09-28T02:58:15.134Z,1.52
2022-09-28T03:03:19.763Z,1.50
2022-09-28T03:08:15.694Z,1.80
2022-09-28T03:13:09.655Z,1.60
2022-09-28T03:18:10.965Z,1.42
2022-09-28T03:23:23.754Z,1.48
2022-09-28T03:28:16.835Z,1.55
2022-09-28T03:33:11.027Z,1.80
2022-09-28T03:38:04.865Z,1.85
2022-09-28T03:43:02.433Z,2.42
2022-09-28T03:47:56.948Z,2.75
2022-09-28T03:52:50.079Z,2.35
2022-09-28T04:02:36.321Z,2.13
2022-09-28T04:07:31.196Z,2.33
2022-09-28T04:12:25.476Z,2.75
2022-09-28T04:17:18.277Z,2.47
2022-09-28T04:22:12.908Z,2.35
2022-09-28T04:27:24.814Z,2.67
2022-09-28T04:32:18.805Z,2.20
2022-09-28T04:37:12.122Z,2.35
2022-09-28T04:42:06.095Z,2.10
2022-09-28T04:47:04.834Z,2.20
2022-09-28T04:51:58.163Z,2.72
2022-09-28T04:56:53.383Z,2.30
2022-09-28T05:01:47.914Z,2.55
2022-09-28T05:07:01.724Z,2.13
2022-09-28T05:11:55.733Z,2.45
2022-09-28T05:16:51.861Z,2.47
2022-09-28T05:21:49.846Z,2.72
2022-09-28T05:26:44.241Z,2.60
2022-09-28T05:31:38.112Z,2.45
2022-09-28T05:37:03.562Z,2.42
2022-09-28T05:41:58.740Z,2.40
2022-09-28T05:46:54.518Z,2.50
2022-09-28T05:51:49.686Z,2.30
2022-09-28T05:56:43.040Z,2.22
2022-09-28T06:01:37.559Z,2.28
2022-09-28T06:06:37.478Z,1.88
2022-09-28T06:11:32.052Z,2.42
2022-09-28T06:16:29.274Z,2.58
2022-09-28T06:21:22.709Z,2.70
2022-09-28T06:26:17.625Z,3.47
2022-09-28T06:31:12.182Z,3.65
2022-09-28T06:36:14.200Z,3.00
2022-09-28T06:41:07.694Z,2.58
2022-09-28T06:46:01.232Z,3.00
2022-09-28T06:50:58.176Z,2.47
2022-09-28T06:55:59.373Z,3.13
2022-09-28T07:00:53.532Z,3.17
2022-09-28T07:05:49.875Z,3.45
2022-09-28T07:10:57.972Z,3.22
2022-09-28T07:16:10.637Z,3.30
2022-09-28T07:21:05.825Z,2.72
2022-09-28T07:25:59.396Z,2.95
2022-09-28T07:31:11.282Z,2.53
2022-09-28T07:36:35.891Z,3.00
2022-09-28T07:41:35.677Z,2.55
2022-09-28T07:46:33.905Z,2.28
2022-09-28T07:51:32.641Z,2.22
2022-09-28T07:56:50.422Z,2.50
2022-09-28T08:02:00.095Z,2.35
2022-09-28T08:06:54.323Z,2.35
2022-09-28T08:11:48.038Z,4.40
2022-09-28T08:17:24.730Z,4.78
2022-09-28T08:22:23.422Z,4.80
2022-09-28T08:27:19.437Z,4.57
2022-09-28T08:32:12.582Z,3.85
2022-09-28T08:37:37.965Z,3.90
2022-09-28T08:43:11.173Z,3.40
2022-09-28T08:48:51.791Z,3.22
2022-09-28T08:54:39.557Z,3.60
2022-09-28T09:00:02.874Z,3.75
2022-09-28T09:05:01.278Z,4.20
2022-09-28T09:10:31.484Z,4.25
2022-09-28T09:15:33.787Z,4.38
2022-09-28T09:20:53.185Z,4.85
2022-09-28T09:25:58.326Z,6.10
2022-09-28T09:31:09.647Z,5.63
2022-09-28T09:36:18.687Z,5.60
2022-09-28T09:41:49.987Z,5.43
2022-09-28T09:47:18.582Z,4.90
2022-09-28T09:52:44.770Z,4.80
2022-09-28T09:57:45.659Z,6.63
2022-09-28T10:02:56.722Z,4.95
2022-09-28T10:08:16.911Z,3.78
2022-09-28T10:13:12.022Z,4.53
2022-09-28T10:18:11.261Z,2.95
2022-09-28T10:23:20.322Z,2.85
2022-09-28T10:28:24.251Z,3.42
2022-09-28T10:33:34.323Z,2.70
2022-09-28T10:38:30.867Z,2.55
2022-09-28T10:43:36.532Z,2.72
2022-09-28T10:48:40.057Z,2.80
2022-09-28T10:53:34.872Z,1.90
2022-09-28T10:58:36.985Z,2.30
2022-09-28T11:03:32.759Z,2.13
2022-09-28T11:08:39.556Z,2.45
2022-09-28T11:13:40.641Z,1.90
2022-09-28T11:18:37.073Z,1.98
2022-09-28T11:23:32.473Z,1.75
2022-09-28T11:28:42.008Z,2.22
2022-09-28T11:33:44.084Z,2.30
2022-09-28T11:39:20.652Z,2.75
2022-09-28T11:44:39.733Z,3.33
2022-09-28T11:49:56.838Z,109.60
2022-09-28T11:54:53.785Z,133.38
2022-09-28T12:00:20.848Z,105.50
2022-09-28T12:10:45.680Z,67.25
2022-09-28T12:16:16.820Z,50.97
2022-09-28T12:21:21.816Z,44.20
2022-09-28T12:26:37.280Z,38.88
2022-09-28T12:31:39.251Z,36.45
2022-09-28T12:36:55.219Z,33.72
2022-09-28T12:42:12.825Z,32.03
2022-09-28T12:47:32.603Z,31.42
2022-09-28T12:52:58.124Z,30.40
2022-09-28T12:58:00.163Z,28.17
2022-09-28T13:02:53.181Z,25.50
2022-09-28T13:13:01.886Z,25.38
2022-09-28T13:18:10.880Z,21.80
2022-09-28T13:23:30.037Z,19.00
2022-09-28T13:28:27.240Z,18.98
2022-09-28T13:33:32.360Z,18.50
2022-09-28T13:38:26.173Z,15.95
2022-09-28T13:43:30.568Z,14.90
2022-09-28T13:48:48.604Z,14.10
2022-09-28T13:53:54.079Z,14.50
2022-09-28T13:59:15.444Z,13.52
2022-09-28T14:04:22.373Z,12.45
2022-09-28T14:09:36.260Z,12.95
2022-09-28T14:14:49.918Z,11.13
2022-09-28T14:19:44.377Z,11.88
2022-09-28T14:24:53.273Z,10.98
2022-09-28T14:29:47.852Z,10.23
2022-09-28T14:34:46.169Z,10.38
2022-09-28T14:40:03.739Z,10.77
2022-09-28T14:45:06.166Z,9.35
2022-09-28T14:50:05.843Z,10.10
2022-09-28T14:54:59.771Z,10.07
2022-09-28T14:59:52.781Z,8.68
2022-09-28T15:04:48.834Z,8.07
2022-09-28T15:09:42.655Z,8.50
2022-09-28T15:14:42.227Z,8.23
2022-09-28T15:19:45.413Z,7.50
2022-09-28T15:29:33.844Z,7.22
2022-09-28T15:34:51.285Z,8.88
2022-09-28T15:39:49.179Z,7.55
2022-09-28T15:44:43.477Z,7.20
2022-09-28T15:49:46.816Z,7.55
2022-09-28T15:54:43.770Z,7.70
2022-09-28T15:59:39.842Z,7.32
2022-09-28T16:04:51.161Z,7.32
2022-09-28T16:10:14.435Z,6.43
2022-09-28T16:15:29.170Z,6.32
2022-09-28T16:20:36.474Z,6.57
2022-09-28T16:25:30.329Z,6.05
2022-09-28T16:30:26.997Z,6.15
2022-09-28T16:35:42.583Z,6.32
2022-09-28T16:40:40.799Z,6.65
2022-09-28T16:45:35.541Z,5.78
2022-09-28T16:50:28.844Z,6.05
2022-09-28T16:55:39.402Z,5.68
2022-09-28T17:00:33.567Z,5.25
2022-09-28T17:05:27.380Z,5.10
2022-09-28T17:11:14.802Z,5.50
2022-09-28T17:16:18.616Z,5.75
2022-09-28T17:21:20.858Z,4.53
2022-09-28T17:26:37.597Z,5.32
2022-09-28T17:31:31.245Z,4.85
2022-09-28T17:36:26.430Z,4.90
2022-09-28T17:41:21.297Z,4.50
2022-09-28T17:46:17.356Z,4.25
2022-09-28T17:51:11.798Z,4.32
2022-09-28T17:56:05.947Z,4.35
2022-09-28T18:01:00.180Z,3.72
2022-09-28T18:06:13.983Z,3.92
2022-09-28T18:11:06.873Z,4.63
2022-09-28T18:16:00.499Z,3.60
2022-09-28T18:20:54.592Z,4.35
2022-09-28T18:25:48.023Z,3.85
2022-09-28T18:30:44.264Z,3.97
2022-09-28T18:35:38.370Z,3.35
2022-09-28T18:40:33.535Z,3.65
2022-09-28T18:45:26.777Z,4.07
2022-09-28T18:50:20.189Z,4.30
2022-09-28T18:55:13.849Z,3.30
2022-09-28T19:00:13.996Z,3.53
2022-09-28T19:05:09.676Z,3.13
2022-09-28T19:10:03.579Z,3.80
2022-09-28T19:14:57.301Z,3.53
2022-09-28T19:19:52.130Z,3.50
2022-09-28T19:24:45.875Z,3.20
2022-09-28T19:29:39.548Z,3.10
2022-09-28T19:34:34.008Z,3.05
2022-09-28T19:39:27.864Z,3.03
2022-09-28T19:44:27.334Z,3.42
2022-09-28T19:49:22.786Z,3.00
2022-09-28T19:54:17.217Z,3.72
2022-09-28T19:59:12.405Z,2.90
2022-09-28T20:04:06.233Z,3.00
2022-09-28T20:09:00.190Z,3.28
2022-09-28T20:13:56.257Z,2.97
2022-09-28T20:18:53.336Z,3.50
2022-09-28T20:23:47.355Z,2.83
2022-09-28T20:28:40.890Z,3.22
2022-09-28T20:33:35.950Z,3.50
2022-09-28T20:38:31.163Z,2.70
2022-09-28T20:43:25.125Z,2.55
2022-09-28T20:48:20.194Z,2.50
2022-09-28T20:53:13.978Z,2.83
2022-09-28T20:58:08.255Z,2.85
2022-09-28T21:03:02.678Z,3.42
2022-09-28T21:07:56.642Z,2.50
2022-09-28T21:12:53.880Z,2.80
2022-09-28T21:17:47.423Z,2.13
2022-09-28T21:22:41.322Z,2.63
2022-09-28T21:27:36.263Z,2.30
2022-09-28T21:32:30.450Z,2.60
2022-09-28T21:37:24.859Z,2.45
2022-09-28T21:42:18.967Z,2.42
2022-09-28T21:47:11.893Z,2.33
2022-09-28T21:52:05.820Z,2.40
2022-09-28T21:56:59.593Z,2.08
2022-09-28T22:01:53.757Z,2.45
2022-09-28T22:06:47.028Z,2.08
2022-09-28T22:11:44.859Z,2.53
2022-09-28T22:16:38.878Z,2.60
2022-09-28T22:21:35.640Z,2.30
2022-09-28T22:26:30.651Z,2.28
2022-09-28T22:31:32.551Z,2.60
2022-09-28T22:36:27.257Z,2.25
2022-09-28T22:41:21.736Z,2.95
2022-09-28T22:46:19.855Z,1.98
2022-09-28T22:51:15.128Z,1.80
2022-09-28T22:56:09.293Z,2.08
2022-09-28T23:01:07.969Z,2.20
2022-09-28T23:06:01.799Z,2.10
2022-09-28T23:10:54.902Z,2.30
2022-09-28T23:16:05.618Z,1.90
2022-09-28T23:21:21.381Z,2.10
2022-09-28T23:26:20.724Z,2.53
2022-09-28T23:31:24.827Z,2.10
2022-09-28T23:36:19.577Z,2.17
2022-09-28T23:41:13.525Z,2.33
2022-09-28T23:46:06.509Z,1.90
2022-09-28T23:55:52.770Z,2.47
